createdAt,value
2024-01-11T05:22:34.023Z,44.42
2024-01-11T05:25:01.374Z,23.88
2024-01-11T05:27:28.876Z,40.63
2024-01-11T05:29:56.891Z,46.88
2024-01-11T05:32:24.496Z,32.90
2024-01-11T05:34:51.919Z,25.83
2024-01-11T05:37:21.752Z,25.08
2024-01-11T05:39:50.190Z,24.38
2024-01-11T05:42:17.517Z,24.02
2024-01-11T05:44:45.138Z,23.00
2024-01-11T05:47:12.578Z,23.13
2024-01-11T05:49:40.054Z,26.60
2024-01-11T05:52:07.581Z,27.35
2024-01-11T05:54:34.952Z,23.15
2024-01-11T05:57:02.256Z,22.42
2024-01-11T05:59:29.698Z,23.13
2024-01-11T06:02:01.361Z,22.60
2024-01-11T06:04:28.736Z,23.67
2024-01-11T06:06:56.058Z,23.42
2024-01-11T06:09:23.749Z,23.80
2024-01-11T06:11:51.173Z,23.95
2024-01-11T06:14:18.592Z,21.65
2024-01-11T06:16:45.920Z,19.35
2024-01-11T06:19:13.301Z,19.67
2024-01-11T06:21:40.955Z,20.27
2024-01-11T06:24:08.863Z,20.75
2024-01-11T06:26:36.222Z,22.98
2024-01-11T06:29:03.791Z,21.35
2024-01-11T06:31:31.609Z,21.88
2024-01-11T06:33:59.076Z,21.58
2024-01-11T06:36:26.603Z,21.67
2024-01-11T06:38:54.035Z,22.35
2024-01-11T06:41:21.355Z,21.63
2024-01-11T06:43:48.704Z,22.80
2024-01-11T06:46:21.343Z,24.35
2024-01-11T06:48:50.342Z,23.85
2024-01-11T06:51:17.848Z,22.10
2024-01-11T06:53:46.122Z,22.20
2024-01-11T06:56:17.299Z,22.98
2024-01-11T06:58:45.536Z,23.33
2024-01-11T07:01:13.664Z,22.30
2024-01-11T07:03:41.174Z,22.13
2024-01-11T07:06:08.894Z,22.65
2024-01-11T07:08:36.546Z,21.15
2024-01-11T07:11:04.460Z,21.83
2024-01-11T07:13:34.911Z,21.58
2024-01-11T07:16:04.166Z,24.52
2024-01-11T07:18:31.737Z,23.58
2024-01-11T07:21:00.854Z,24.13
2024-01-11T07:23:28.793Z,24.65
2024-01-11T07:25:56.274Z,29.02
2024-01-11T07:28:26.592Z,26.90
2024-01-11T07:30:54.561Z,26.50
2024-01-11T07:33:22.399Z,23.58
2024-01-11T07:35:50.206Z,24.13
2024-01-11T07:38:17.557Z,24.10
2024-01-11T07:40:44.886Z,23.05
2024-01-11T07:43:12.791Z,23.27
2024-01-11T07:45:40.475Z,22.02
2024-01-11T07:48:08.017Z,23.30
2024-01-11T07:50:36.624Z,24.70
2024-01-11T07:53:04.183Z,25.98
2024-01-11T07:55:32.542Z,26.38
2024-01-11T07:58:00.295Z,24.73
2024-01-11T08:00:27.656Z,24.45
2024-01-11T08:02:55.688Z,24.73
2024-01-11T08:05:23.118Z,27.65
2024-01-11T08:07:50.853Z,30.70
2024-01-11T08:10:18.469Z,28.95
2024-01-11T08:12:45.772Z,29.08
2024-01-11T08:15:16.057Z,28.05
2024-01-11T08:17:48.901Z,26.02
2024-01-11T08:20:16.791Z,26.08
2024-01-11T08:22:50.004Z,24.70
2024-01-11T08:25:18.813Z,25.23
2024-01-11T08:27:46.263Z,26.02
2024-01-11T08:30:13.984Z,24.33
2024-01-11T08:32:43.136Z,23.58
2024-01-11T08:35:13.992Z,22.52
2024-01-11T08:37:41.613Z,22.20
2024-01-11T08:40:10.715Z,24.33
2024-01-11T08:42:39.170Z,24.30
2024-01-11T08:45:08.389Z,24.35
2024-01-11T08:47:36.251Z,24.98
2024-01-11T08:50:07.305Z,24.90
2024-01-11T08:52:35.039Z,24.77
2024-01-11T08:55:02.740Z,25.05
2024-01-11T08:57:30.156Z,25.85
2024-01-11T08:59:58.175Z,26.30
2024-01-11T09:02:27.595Z,26.05
2024-01-11T09:04:55.170Z,25.00
2024-01-11T09:07:22.560Z,24.63
2024-01-11T09:09:54.393Z,25.52
2024-01-11T09:12:24.565Z,25.52
2024-01-11T09:14:51.951Z,25.95
2024-01-11T09:17:19.329Z,24.63
2024-01-11T09:19:46.893Z,27.75
2024-01-11T09:22:14.322Z,26.25
2024-01-11T09:24:41.827Z,26.70
2024-01-11T09:27:09.329Z,27.98
2024-01-11T09:29:36.673Z,26.77
2024-01-11T09:32:04.514Z,27.10
2024-01-11T09:34:32.756Z,26.65
2024-01-11T09:37:00.627Z,26.88
2024-01-11T09:39:28.537Z,26.70
2024-01-11T09:42:08.087Z,29.98
2024-01-11T09:44:35.913Z,27.73
2024-01-11T09:47:04.495Z,29.00
2024-01-11T09:49:34.050Z,28.63
2024-01-11T09:52:03.036Z,29.48
2024-01-11T09:54:30.798Z,26.88
2024-01-11T09:57:00.088Z,26.63
2024-01-11T09:59:27.820Z,25.85
2024-01-11T10:01:55.534Z,27.13
2024-01-11T10:04:23.597Z,27.23
2024-01-11T10:06:52.807Z,26.52
2024-01-11T10:09:20.985Z,25.52
2024-01-11T10:11:49.750Z,26.85
2024-01-11T10:14:17.204Z,28.08
2024-01-11T10:16:47.448Z,27.17
2024-01-11T10:19:17.738Z,26.42
2024-01-11T10:21:45.510Z,26.67
2024-01-11T10:24:19.892Z,27.08
2024-01-11T10:26:47.462Z,26.42
2024-01-11T10:29:15.289Z,25.05
2024-01-11T10:31:42.668Z,27.35
2024-01-11T10:34:10.109Z,26.48
2024-01-11T10:36:38.089Z,29.25
2024-01-11T10:39:06.599Z,28.75
2024-01-11T10:41:41.400Z,29.42
2024-01-11T10:44:31.692Z,27.75
2024-01-11T10:47:00.130Z,27.30
2024-01-11T10:49:27.647Z,25.42
2024-01-11T10:52:01.680Z,28.38
2024-01-11T10:54:31.836Z,26.13
2024-01-11T10:57:02.396Z,24.02
2024-01-11T10:59:31.399Z,24.40
2024-01-11T11:02:05.481Z,26.63
2024-01-11T11:04:36.056Z,26.02
2024-01-11T11:07:03.868Z,27.13
2024-01-11T11:09:33.922Z,24.95
2024-01-11T11:12:01.737Z,24.40
2024-01-11T11:14:29.822Z,26.08
2024-01-11T11:16:57.143Z,24.38
2024-01-11T11:19:24.847Z,24.63
2024-01-11T11:21:53.303Z,24.75
2024-01-11T11:24:21.123Z,25.98
2024-01-11T11:26:48.934Z,24.30
2024-01-11T11:29:17.024Z,26.05
2024-01-11T11:31:48.538Z,24.95
2024-01-11T11:34:16.263Z,25.63
2024-01-11T11:36:47.148Z,25.10
2024-01-11T11:39:14.499Z,27.27
2024-01-11T11:41:43.943Z,30.10
2024-01-11T11:44:17.145Z,25.63
2024-01-11T11:46:46.290Z,23.30
2024-01-11T11:49:14.798Z,21.63
2024-01-11T11:51:44.419Z,23.30
2024-01-11T11:54:12.275Z,24.90
2024-01-11T11:56:40.171Z,25.50
2024-01-11T11:59:07.879Z,24.92
2024-01-11T12:01:36.453Z,24.40
2024-01-11T12:04:04.055Z,23.98
2024-01-11T12:06:31.580Z,24.75
2024-01-11T12:08:59.169Z,24.13
2024-01-11T12:11:27.223Z,25.00
2024-01-11T12:13:57.263Z,25.23
2024-01-11T12:16:24.734Z,24.10
2024-01-11T12:18:52.951Z,25.33
2024-01-11T12:21:20.998Z,25.17
2024-01-11T12:23:49.874Z,25.23
2024-01-11T12:26:23.153Z,24.95
2024-01-11T12:28:51.441Z,23.80
2024-01-11T12:31:20.829Z,24.63
2024-01-11T12:33:50.193Z,25.27
2024-01-11T12:36:17.950Z,24.25
2024-01-11T12:38:52.411Z,26.02
2024-01-11T12:41:24.162Z,25.42
2024-01-11T12:43:51.963Z,24.75
2024-01-11T12:46:19.434Z,26.10
2024-01-11T12:48:48.297Z,25.48
2024-01-11T12:51:21.364Z,26.05
2024-01-11T12:53:50.590Z,26.40
2024-01-11T12:56:20.170Z,27.38
2024-01-11T12:58:48.318Z,26.58
2024-01-11T13:01:16.075Z,28.50
2024-01-11T13:03:48.647Z,26.80
2024-01-11T13:06:18.470Z,27.75
2024-01-11T13:08:46.069Z,26.13
2024-01-11T13:11:15.256Z,27.00
2024-01-11T13:13:42.990Z,26.23
2024-01-11T13:16:13.583Z,27.00
2024-01-11T13:18:41.533Z,26.27
2024-01-11T13:21:09.304Z,26.27
2024-01-11T13:23:38.945Z,27.25
2024-01-11T13:26:07.615Z,26.67
2024-01-11T13:28:35.795Z,26.33
2024-01-11T13:31:03.633Z,27.08
2024-01-11T13:33:31.846Z,25.48
2024-01-11T13:36:00.176Z,27.08
2024-01-11T13:38:28.870Z,26.50
2024-01-11T13:40:56.248Z,26.02
2024-01-11T13:43:24.046Z,25.63
2024-01-11T13:45:51.394Z,25.63
2024-01-11T13:48:19.177Z,26.13
2024-01-11T13:50:46.669Z,25.23
2024-01-11T13:53:14.123Z,25.38
2024-01-11T13:55:42.237Z,25.45
2024-01-11T13:58:09.752Z,26.52
2024-01-11T14:00:37.368Z,25.17
2024-01-11T14:03:06.656Z,26.60
2024-01-11T14:05:34.747Z,26.30
2024-01-11T14:08:02.716Z,26.65
2024-01-11T14:10:30.187Z,25.98
2024-01-11T14:12:57.917Z,25.65
2024-01-11T14:15:25.702Z,25.58
2024-01-11T14:17:53.723Z,25.77
2024-01-11T14:20:22.178Z,27.15
2024-01-11T14:22:51.592Z,26.63
2024-01-11T14:25:20.467Z,25.75
2024-01-11T14:27:50.962Z,25.75
2024-01-11T14:30:18.665Z,26.48
2024-01-11T14:32:46.857Z,27.08
2024-01-11T14:35:14.803Z,27.15
2024-01-11T14:37:43.097Z,28.85
2024-01-11T14:40:11.845Z,43.67
2024-01-11T14:42:39.941Z,29.80
2024-01-11T14:45:08.471Z,26.50
2024-01-11T14:47:36.615Z,28.35
2024-01-11T14:50:05.522Z,26.40
2024-01-11T14:52:33.386Z,29.08
2024-01-11T14:55:01.018Z,31.67
2024-01-11T14:57:28.356Z,29.23
2024-01-11T14:59:55.837Z,29.00
2024-01-11T15:02:23.326Z,35.33
2024-01-11T15:04:50.815Z,32.92
2024-01-11T15:07:18.573Z,30.55
2024-01-11T15:09:45.900Z,28.42
2024-01-11T15:12:13.802Z,28.75
2024-01-11T15:14:41.114Z,29.30
2024-01-11T15:17:09.328Z,28.75
2024-01-11T15:19:36.809Z,29.00
2024-01-11T15:22:04.373Z,28.95
2024-01-11T15:24:33.579Z,28.65
2024-01-11T15:27:03.093Z,28.52
2024-01-11T15:29:30.461Z,28.98
2024-01-11T15:31:58.386Z,28.85
2024-01-11T15:34:25.824Z,30.27
2024-01-11T15:36:54.194Z,30.58
2024-01-11T15:39:27.397Z,41.50
2024-01-11T15:41:58.310Z,36.17
2024-01-11T15:44:30.720Z,37.17
2024-01-11T15:46:58.264Z,32.83
2024-01-11T15:49:26.128Z,48.03
2024-01-11T15:51:53.776Z,32.33
2024-01-11T15:54:22.172Z,30.63
2024-01-11T15:56:50.219Z,28.33
2024-01-11T15:59:18.751Z,30.00
2024-01-11T16:01:56.246Z,36.05
2024-01-11T16:04:31.197Z,42.80
2024-01-11T16:06:59.289Z,47.42
2024-01-11T16:09:26.837Z,40.95
2024-01-11T16:12:02.123Z,37.30
2024-01-11T16:14:32.631Z,34.53
2024-01-11T16:17:03.737Z,39.05
2024-01-11T16:19:32.392Z,48.72
2024-01-11T16:21:59.765Z,40.20
2024-01-11T16:24:28.190Z,40.65
2024-01-11T16:26:55.566Z,40.28
2024-01-11T16:29:23.348Z,37.35
2024-01-11T16:31:51.575Z,37.00
2024-01-11T16:34:18.984Z,38.70
2024-01-11T16:36:46.611Z,36.30
2024-01-11T16:39:13.960Z,38.90
2024-01-11T16:41:43.819Z,39.30
2024-01-11T16:44:11.730Z,40.20
2024-01-11T16:46:39.030Z,41.40
2024-01-11T16:49:06.747Z,41.90
2024-01-11T16:51:34.069Z,40.25
2024-01-11T16:54:01.531Z,39.17
2024-01-11T16:56:29.024Z,37.38
2024-01-11T16:58:56.362Z,38.70
2024-01-11T17:01:24.065Z,37.60
2024-01-11T17:03:57.992Z,35.58
2024-01-11T17:06:25.506Z,35.90
2024-01-11T17:08:54.060Z,37.08
2024-01-11T17:11:21.457Z,37.90
2024-01-11T17:13:48.718Z,37.05
2024-01-11T17:16:21.258Z,35.30
2024-01-11T17:18:50.069Z,35.92
2024-01-11T17:21:17.891Z,37.40
2024-01-11T17:23:45.378Z,36.70
2024-01-11T17:26:13.107Z,37.35
2024-01-11T17:28:40.948Z,36.97
2024-01-11T17:31:08.380Z,36.08
2024-01-11T17:33:35.936Z,37.17
2024-01-11T17:36:04.056Z,37.53
2024-01-11T17:38:31.889Z,38.35
2024-01-11T17:40:59.325Z,42.53
2024-01-11T17:43:26.675Z,40.28
2024-01-11T17:45:54.693Z,44.03
2024-01-11T17:48:22.328Z,45.00
2024-01-11T17:50:50.052Z,43.67
2024-01-11T17:53:17.882Z,44.55
2024-01-11T17:55:45.993Z,44.97
2024-01-11T17:58:13.877Z,41.55
2024-01-11T18:00:41.658Z,42.35
2024-01-11T18:03:09.086Z,42.13
2024-01-11T18:05:36.780Z,42.17
2024-01-11T18:08:04.627Z,41.75
2024-01-11T18:10:38.358Z,42.08
2024-01-11T18:13:05.780Z,41.78
2024-01-11T18:15:33.214Z,41.13
2024-01-11T18:18:01.276Z,42.88
2024-01-11T18:20:29.278Z,53.63
2024-01-11T18:22:56.929Z,47.40
2024-01-11T18:25:24.909Z,44.42
2024-01-11T18:27:52.446Z,49.47
2024-01-11T18:30:19.893Z,47.83
2024-01-11T18:32:47.936Z,44.33
2024-01-11T18:35:16.017Z,44.38
2024-01-11T18:37:43.378Z,44.38
2024-01-11T18:40:11.180Z,40.72
2024-01-11T18:42:38.505Z,40.97
2024-01-11T18:45:07.022Z,40.05
2024-01-11T18:47:34.516Z,37.80
2024-01-11T18:50:03.700Z,37.58
2024-01-11T18:52:32.069Z,35.58
2024-01-11T18:55:08.012Z,32.75
2024-01-11T18:57:40.888Z,30.80
2024-01-11T19:00:11.197Z,28.33
2024-01-11T19:02:38.806Z,36.83
2024-01-11T19:05:06.844Z,37.22
2024-01-11T19:07:34.743Z,39.20
2024-01-11T19:10:02.144Z,34.35
2024-01-11T19:12:30.676Z,33.75
2024-01-11T19:14:58.160Z,33.80
2024-01-11T19:17:25.754Z,36.50
2024-01-11T19:19:53.310Z,38.08
2024-01-11T19:22:20.731Z,41.78
2024-01-11T19:24:48.174Z,40.25
2024-01-11T19:27:15.847Z,43.35
2024-01-11T19:29:43.692Z,43.03
2024-01-11T19:32:13.112Z,41.90
2024-01-11T19:34:40.932Z,41.67
2024-01-11T19:37:08.430Z,41.90
2024-01-11T19:39:36.366Z,39.83
2024-01-11T19:42:03.823Z,41.22
2024-01-11T19:44:31.392Z,41.47
2024-01-11T19:46:59.254Z,45.00
2024-01-11T19:49:26.748Z,40.30
2024-01-11T19:51:54.226Z,41.42
2024-01-11T19:54:21.583Z,39.65
2024-01-11T19:56:48.982Z,42.40
2024-01-11T19:59:17.636Z,39.03
2024-01-11T20:01:45.228Z,39.38
2024-01-11T20:04:12.663Z,37.17
2024-01-11T20:06:40.135Z,36.63
2024-01-11T20:09:07.572Z,35.50
2024-01-11T20:11:35.513Z,35.63
2024-01-11T20:14:03.161Z,33.80
2024-01-11T20:16:30.558Z,32.13
2024-01-11T20:18:58.575Z,31.90
2024-01-11T20:21:26.026Z,31.10
2024-01-11T20:23:53.608Z,31.35
2024-01-11T20:26:24.717Z,34.17
2024-01-11T20:28:53.213Z,33.75
2024-01-11T20:31:22.031Z,37.53
2024-01-11T20:33:49.747Z,38.08
2024-01-11T20:36:17.200Z,38.40
2024-01-11T20:38:44.665Z,36.00
2024-01-11T20:41:14.841Z,39.97
2024-01-11T20:43:42.815Z,44.70
2024-01-11T20:46:10.260Z,45.50
2024-01-11T20:48:39.761Z,40.63
2024-01-11T20:51:09.229Z,41.85
2024-01-11T20:53:36.562Z,38.88
2024-01-11T20:56:04.143Z,39.50
2024-01-11T20:58:31.561Z,41.90
2024-01-11T21:00:58.854Z,42.92
2024-01-11T21:03:26.331Z,46.33
2024-01-11T21:05:55.544Z,34.67
2024-01-11T21:08:23.448Z,36.05
2024-01-11T21:10:52.232Z,35.75
2024-01-11T21:13:21.094Z,36.95
2024-01-11T21:15:48.466Z,35.15
2024-01-11T21:18:17.172Z,34.45
2024-01-11T21:20:44.755Z,33.53
2024-01-11T21:23:12.198Z,32.45
2024-01-11T21:25:39.638Z,33.33
2024-01-11T21:28:08.092Z,34.10
2024-01-11T21:30:35.485Z,31.13
2024-01-11T21:33:04.101Z,30.83
2024-01-11T21:35:31.693Z,31.88
2024-01-11T21:37:59.059Z,31.48
2024-01-11T21:40:26.903Z,31.45
2024-01-11T21:42:54.990Z,32.50
2024-01-11T21:45:22.341Z,34.63
2024-01-11T21:47:52.308Z,37.65
2024-01-11T21:50:19.999Z,35.15
2024-01-11T21:52:47.381Z,34.63
2024-01-11T21:55:15.159Z,36.10
2024-01-11T21:57:42.421Z,35.22
2024-01-11T22:00:10.088Z,35.58
2024-01-11T22:02:38.530Z,37.05
2024-01-11T22:05:06.506Z,36.80
2024-01-11T22:07:33.863Z,34.75
2024-01-11T22:10:01.946Z,35.10
2024-01-11T22:12:29.234Z,38.03
2024-01-11T22:14:57.278Z,36.40
2024-01-11T22:17:24.710Z,36.78
2024-01-11T22:19:52.135Z,35.45
2024-01-11T22:22:19.558Z,36.22
2024-01-11T22:24:46.859Z,35.25
2024-01-11T22:27:14.136Z,35.13
2024-01-11T22:29:41.425Z,35.63
2024-01-11T22:32:08.764Z,35.72
2024-01-11T22:34:36.148Z,36.38
2024-01-11T22:37:03.793Z,35.63
2024-01-11T22:39:31.110Z,33.28
2024-01-11T22:41:58.778Z,34.67
2024-01-11T22:44:26.188Z,36.88
2024-01-11T22:46:55.069Z,33.75
2024-01-11T22:49:22.771Z,34.00
2024-01-11T22:51:50.112Z,33.22
2024-01-11T22:54:17.428Z,33.65
2024-01-11T22:56:44.826Z,33.40
2024-01-11T22:59:13.027Z,34.95
2024-01-11T23:01:43.929Z,34.17
2024-01-11T23:04:11.253Z,34.45
2024-01-11T23:06:38.680Z,34.35
2024-01-11T23:09:11.076Z,33.78
2024-01-11T23:11:38.698Z,33.88
2024-01-11T23:14:06.521Z,32.00
2024-01-11T23:16:33.819Z,33.65
2024-01-11T23:19:01.344Z,33.63
2024-01-11T23:21:29.194Z,32.10
2024-01-11T23:23:56.516Z,33.42
2024-01-11T23:26:23.895Z,32.72
2024-01-11T23:28:52.252Z,32.90
2024-01-11T23:31:19.551Z,32.83
2024-01-11T23:33:47.054Z,31.58
2024-01-11T23:36:14.740Z,32.90
2024-01-11T23:38:42.218Z,32.22
2024-01-11T23:41:09.604Z,32.40
2024-01-11T23:43:37.541Z,30.95
2024-01-11T23:46:05.095Z,31.83
2024-01-11T23:48:34.346Z,31.88
2024-01-11T23:51:02.034Z,32.63
2024-01-11T23:53:29.727Z,32.70
2024-01-11T23:55:57.083Z,33.83
2024-01-11T23:58:24.400Z,31.27
